Time;durP1;ratioP1;P1;durP2;ratioP2;P2;SDS_P1;SDS_P2;PMS_P1;PMS_P2;Temp;Humidity;BMP_temperature;BMP_pressure;BME280_temperature;BME280_humidity;BME280_pressure;Samples;Min_cycle;Max_cycle;Signal;HPM_P1;HPM_P2
2022/01/03 00:00:38;;;;;;;13.95;2.97;;;8.20;99.90;;;;;;4910671;29;20385;-71
2022/01/03 00:03:08;;;;;;;11.55;3.20;;;8.30;99.90;;;;;;4905895;29;20064;-71
2022/01/03 00:05:33;;;;;;;16.90;3.67;;;8.30;99.90;;;;;;4927323;29;20127;-70
2022/01/03 00:07:59;;;;;;;13.75;2.65;;;8.30;99.90;;;;;;4927113;29;20083;-70
2022/01/03 00:10:25;;;;;;;13.30;2.80;;;8.40;99.90;;;;;;4927293;29;20128;-70
2022/01/03 00:12:51;;;;;;;14.98;3.13;;;8.40;99.90;;;;;;4908021;29;20044;-69
2022/01/03 00:15:18;;;;;;;19.38;3.28;;;8.40;99.90;;;;;;4907655;29;20063;-70
2022/01/03 00:17:46;;;;;;;12.30;3.10;;;8.50;99.90;;;;;;4909627;29;20108;-70
2022/01/03 00:20:12;;;;;;;13.45;3.22;;;8.50;99.90;;;;;;4942306;29;20059;-69
2022/01/03 00:22:47;;;;;;;12.57;3.10;;;8.60;99.90;;;;;;4909912;29;20327;-69
2022/01/03 00:25:19;;;;;;;16.58;3.45;;;8.60;99.90;;;;;;4909899;29;20491;-69
2022/01/03 00:27:48;;;;;;;26.73;3.83;;;8.60;99.90;;;;;;4910075;29;20056;-69
2022/01/03 00:30:19;;;;;;;17.80;3.03;;;8.70;99.90;;;;;;4927468;29;20056;-69
2022/01/03 00:32:48;;;;;;;11.32;3.65;;;8.70;99.90;;;;;;4910185;29;20063;-69
2022/01/03 00:35:15;;;;;;;18.65;3.47;;;8.70;99.90;;;;;;4909697;29;20122;-69
2022/01/03 00:37:44;;;;;;;17.85;3.47;;;8.70;99.90;;;;;;4909522;29;20044;-69
2022/01/03 00:40:10;;;;;;;18.27;3.20;;;8.80;99.90;;;;;;4906561;29;20124;-70
2022/01/03 00:42:36;;;;;;;19.17;3.35;;;8.80;99.90;;;;;;4906683;29;20052;-70
2022/01/03 00:45:03;;;;;;;23.00;3.78;;;8.80;99.90;;;;;;4904147;29;20048;-70
2022/01/03 00:47:33;;;;;;;21.30;4.15;;;8.90;99.90;;;;;;4887865;29;20513;-69
2022/01/03 00:50:01;;;;;;;19.95;4.65;;;8.90;99.90;;;;;;4901726;29;20063;-69
2022/01/03 00:52:27;;;;;;;23.02;4.43;;;8.90;99.90;;;;;;4906397;29;20132;-69
2022/01/03 00:54:53;;;;;;;20.58;4.28;;;8.90;99.90;;;;;;4908205;29;20049;-69
2022/01/03 00:58:02;;;;;;;22.53;4.23;;;8.90;99.90;;;;;;4890491;29;20068;-69
2022/01/03 01:00:35;;;;;;;24.20;4.13;;;8.90;99.90;;;;;;4831580;29;20184;-69
2022/01/03 01:03:11;;;;;;;20.52;3.83;;;8.90;99.90;;;;;;4816081;29;20050;-69
2022/01/03 01:05:44;;;;;;;23.17;4.23;;;8.90;99.90;;;;;;4826007;29;20054;-69
2022/01/03 01:08:10;;;;;;;28.45;5.22;;;8.90;99.90;;;;;;4837289;29;20101;-69
2022/01/03 01:10:39;;;;;;;26.02;4.55;;;8.90;99.90;;;;;;4832005;29;20144;-69
2022/01/03 01:13:08;;;;;;;23.60;3.95;;;8.90;99.90;;;;;;4831471;29;20057;-69
2022/01/03 01:15:35;;;;;;;18.05;4.05;;;8.90;99.90;;;;;;4831756;29;20429;-69
2022/01/03 01:18:04;;;;;;;29.73;4.95;;;8.90;99.90;;;;;;4810159;29;20114;-69
2022/01/03 01:20:31;;;;;;;33.38;5.05;;;8.90;99.90;;;;;;4816299;29;20063;-69
2022/01/03 01:22:56;;;;;;;21.85;4.10;;;8.90;99.90;;;;;;4841640;29;20110;-69
2022/01/03 01:27:45;;;;;;;23.85;4.07;;;8.90;99.90;;;;;;4816410;29;20531;-69
2022/01/03 01:28:11;;;;;;;26.33;4.63;;;8.90;99.90;;;;;;4844900;29;20058;-69
2022/01/03 01:30:38;;;;;;;22.15;4.25;;;8.90;99.90;;;;;;4834390;29;20062;-69
2022/01/03 01:33:14;;;;;;;;;;;8.90;99.90;;;;;;4819991;29;20054;-70
2022/01/03 01:35:50;;;;;;;18.90;3.95;;;8.90;99.90;;;;;;4825290;29;20050;-70
2022/01/03 01:38:28;;;;;;;31.92;5.28;;;8.90;99.90;;;;;;4894177;29;20041;-69
2022/01/03 01:40:56;;;;;;;28.77;4.60;;;9.00;99.90;;;;;;4909793;29;20063;-69
2022/01/03 01:43:36;;;;;;;26.30;3.95;;;9.00;99.90;;;;;;4941312;29;20065;-70
2022/01/03 01:46:10;;;;;;;33.58;5.32;;;9.00;99.90;;;;;;4911494;29;20104;-69
2022/01/03 01:48:38;;;;;;;26.08;5.93;;;9.00;99.90;;;;;;4910385;29;20104;-69
2022/01/03 01:51:06;;;;;;;33.75;4.53;;;9.00;99.90;;;;;;4892750;29;20052;-69
2022/01/03 01:53:42;;;;;;;29.95;6.35;;;9.00;99.90;;;;;;4938960;29;20060;-70
2022/01/03 01:56:46;;;;;;;24.92;4.60;;;9.00;99.90;;;;;;4924594;29;20116;-70
2022/01/03 01:59:20;;;;;;;25.80;4.95;;;9.00;99.90;;;;;;4896157;29;20107;-70
2022/01/03 02:02:01;;;;;;;28.50;4.72;;;9.00;99.90;;;;;;4908088;29;20073;-70
2022/01/03 02:04:46;;;;;;;22.30;4.53;;;9.00;99.90;;;;;;4909387;29;20107;-70
2022/01/03 02:07:39;;;;;;;34.40;4.95;;;9.00;99.90;;;;;;4909517;29;20056;-69
2022/01/03 02:10:11;;;;;;;27.95;5.03;;;9.00;99.90;;;;;;4909677;29;20059;-70
2022/01/03 02:12:40;;;;;;;28.85;5.85;;;9.00;99.90;;;;;;4922033;29;20068;-69
2022/01/03 02:15:11;;;;;;;30.52;5.68;;;9.10;99.90;;;;;;4935032;29;20052;-69
2022/01/03 02:17:37;;;;;;;26.40;4.97;;;9.10;99.90;;;;;;4894073;29;20049;-69
2022/01/03 02:20:17;;;;;;;29.02;5.63;;;9.10;99.90;;;;;;4910780;29;20119;-69
2022/01/03 02:22:44;;;;;;;26.30;4.97;;;9.10;99.90;;;;;;4897272;29;20485;-69
2022/01/03 02:25:12;;;;;;;28.13;5.32;;;9.10;99.90;;;;;;4910452;29;20059;-69
2022/01/03 02:27:39;;;;;;;32.95;4.88;;;9.10;99.90;;;;;;4907081;29;20069;-70
2022/01/03 02:30:08;;;;;;;28.90;5.13;;;9.10;99.90;;;;;;4910442;29;20513;-69
2022/01/03 02:32:34;;;;;;;30.98;5.60;;;9.20;99.90;;;;;;4908223;29;20072;-69
2022/01/03 02:35:00;;;;;;;28.13;5.95;;;9.20;99.90;;;;;;4910375;29;20456;-69
2022/01/03 02:37:25;;;;;;;25.83;4.90;;;9.20;99.90;;;;;;4940363;29;20055;-69
2022/01/03 02:39:52;;;;;;;23.63;4.23;;;9.20;99.90;;;;;;4908565;29;20147;-70
2022/01/03 02:42:23;;;;;;;32.92;6.68;;;9.20;99.90;;;;;;4908037;29;20309;-69
2022/01/03 02:44:58;;;;;;;25.65;4.43;;;9.20;99.90;;;;;;4901359;29;20488;-69
2022/01/03 02:47:23;;;;;;;31.30;6.03;;;9.20;99.90;;;;;;4908010;29;20357;-69
2022/01/03 02:49:49;;;;;;;24.13;4.97;;;9.20;99.90;;;;;;4908950;29;20085;-69
2022/01/03 02:52:15;;;;;;;39.07;5.43;;;9.20;99.90;;;;;;4908685;29;20400;-69
2022/01/03 02:54:41;;;;;;;32.03;5.53;;;9.10;99.90;;;;;;4909540;29;20050;-69
2022/01/03 02:57:07;;;;;;;31.40;4.80;;;9.10;99.90;;;;;;4908438;29;20052;-68
2022/01/03 02:59:32;;;;;;;31.13;5.57;;;9.10;99.90;;;;;;4940589;29;20085;-69
2022/01/03 03:01:59;;;;;;;30.07;5.87;;;9.10;99.90;;;;;;4911948;29;20045;-68
2022/01/03 03:04:24;;;;;;;;;;;9.20;99.90;;;;;;4917260;29;20050;-68
2022/01/03 03:06:50;;;;;;;25.35;5.47;;;9.10;99.90;;;;;;4909494;29;19947;-69
2022/01/03 03:09:16;;;;;;;27.25;4.88;;;9.10;99.90;;;;;;4908512;29;20050;-68
2022/01/03 03:11:42;;;;;;;34.60;6.15;;;9.10;99.90;;;;;;4908328;29;20052;-68
2022/01/03 03:14:08;;;;;;;23.70;4.40;;;9.10;99.90;;;;;;4908278;29;20076;-68
2022/01/03 03:16:34;;;;;;;29.05;5.97;;;9.10;99.90;;;;;;4940315;29;20508;-68
2022/01/03 03:19:00;;;;;;;31.33;6.15;;;9.10;99.90;;;;;;4940187;29;20052;-69
2022/01/03 03:21:31;;;;;;;28.85;5.85;;;9.10;99.90;;;;;;4910095;29;20043;-68
2022/01/03 03:23:58;;;;;;;26.60;5.28;;;9.00;99.90;;;;;;4901445;29;20552;-68
2022/01/03 03:26:24;;;;;;;36.85;5.80;;;9.00;99.90;;;;;;4906636;29;20119;-69
2022/01/03 03:28:50;;;;;;;37.10;5.05;;;9.00;99.90;;;;;;4907878;29;20083;-69
2022/01/03 03:31:15;;;;;;;33.33;6.50;;;8.90;99.90;;;;;;4923370;29;20063;-69
2022/01/03 03:33:41;;;;;;;28.40;5.53;;;8.90;99.90;;;;;;4909887;29;20115;-69
2022/01/03 03:36:07;;;;;;;32.25;5.40;;;8.90;99.90;;;;;;4907749;29;20052;-68
2022/01/03 03:38:33;;;;;;;32.50;6.18;;;8.90;99.90;;;;;;4890674;29;20056;-68
2022/01/03 03:41:01;;;;;;;38.22;6.05;;;8.90;99.90;;;;;;4895540;29;20068;-68
2022/01/03 03:43:27;;;;;;;35.08;5.72;;;8.80;99.90;;;;;;4907960;29;20099;-68
2022/01/03 03:45:52;;;;;;;37.65;5.68;;;8.80;99.90;;;;;;4907392;29;20063;-68
2022/01/03 03:48:19;;;;;;;26.00;5.37;;;8.80;99.90;;;;;;4902557;29;20069;-68
2022/01/03 03:50:46;;;;;;;32.72;6.80;;;8.80;99.90;;;;;;4909166;29;20705;-68
2022/01/03 03:53:12;;;;;;;31.42;6.32;;;8.70;99.90;;;;;;4908376;29;20053;-68
2022/01/03 03:55:38;;;;;;;32.85;4.60;;;8.70;99.90;;;;;;4909049;29;20125;-68
2022/01/03 03:58:04;;;;;;;34.13;5.22;;;8.70;99.90;;;;;;4903491;29;20044;-69
2022/01/03 04:00:31;;;;;;;23.23;5.03;;;8.70;99.90;;;;;;4908974;29;20124;-68
2022/01/03 04:02:57;;;;;;;30.92;4.97;;;8.70;99.90;;;;;;4922917;29;20052;-68
2022/01/03 04:05:23;;;;;;;34.08;6.63;;;8.70;99.90;;;;;;4939204;29;20084;-68
2022/01/03 04:07:49;;;;;;;26.20;5.30;;;8.70;99.90;;;;;;4906649;29;20060;-69
2022/01/03 04:10:15;;;;;;;28.50;5.60;;;8.70;99.90;;;;;;4889632;29;20093;-68
2022/01/03 04:12:41;;;;;;;;;;;8.70;99.90;;;;;;4909118;29;20441;-68
2022/01/03 04:15:07;;;;;;;30.45;5.38;;;8.60;99.90;;;;;;4907760;29;19928;-68
2022/01/03 04:17:33;;;;;;;38.45;5.70;;;8.70;99.90;;;;;;4891834;29;20133;-67
2022/01/03 04:19:59;;;;;;;26.73;4.53;;;8.60;99.90;;;;;;4907026;29;20044;-68
2022/01/03 04:22:24;;;;;;;37.70;5.37;;;8.70;99.90;;;;;;4907141;29;20080;-68
2022/01/03 04:24:50;;;;;;;23.17;5.60;;;8.70;99.90;;;;;;4908333;29;20777;-68
2022/01/03 04:27:16;;;;;;;34.63;6.47;;;8.70;99.90;;;;;;4908424;29;20052;-68
2022/01/03 04:29:42;;;;;;;26.30;5.88;;;8.70;99.90;;;;;;4907541;29;20052;-69
2022/01/03 04:32:07;;;;;;;36.28;6.47;;;8.70;99.90;;;;;;4904156;29;20060;-68
2022/01/03 04:34:33;;;;;;;36.78;6.93;;;8.70;99.90;;;;;;4901044;29;20199;-68
2022/01/03 04:36:59;;;;;;;32.92;5.43;;;8.70;99.90;;;;;;4908494;29;20048;-68
2022/01/03 04:39:24;;;;;;;29.65;5.70;;;8.70;99.90;;;;;;4904986;29;20422;-68
2022/01/03 04:41:50;;;;;;;36.67;5.75;;;8.70;99.90;;;;;;4931102;29;20063;-68
2022/01/03 04:44:16;;;;;;;29.50;5.60;;;8.70;99.90;;;;;;4912579;29;20044;-68
2022/01/03 04:46:43;;;;;;;35.08;5.65;;;8.80;99.90;;;;;;4922917;29;20049;-69
2022/01/03 04:49:09;;;;;;;;;;;8.80;99.90;;;;;;4891335;29;20060;-69
2022/01/03 04:51:35;;;;;;;33.50;6.65;;;8.70;99.90;;;;;;4921027;29;20433;-68
2022/01/03 04:54:01;;;;;;;29.80;6.07;;;8.70;99.90;;;;;;4906639;29;20472;-68
2022/01/03 04:56:27;;;;;;;31.20;5.47;;;8.70;99.90;;;;;;4908173;29;20160;-68
2022/01/03 04:58:56;;;;;;;47.10;6.95;;;8.70;99.90;;;;;;4900844;29;20127;-68
2022/01/03 05:01:22;;;;;;;41.83;6.15;;;8.70;99.90;;;;;;4898587;29;20465;-68
2022/01/03 05:03:48;;;;;;;31.45;5.53;;;8.70;99.90;;;;;;4922865;29;20087;-69
2022/01/03 05:06:14;;;;;;;30.73;5.30;;;8.70;99.90;;;;;;4907654;29;20052;-69
2022/01/03 05:08:41;;;;;;;29.67;6.45;;;8.80;99.90;;;;;;4907601;29;20054;-69
2022/01/03 05:11:06;;;;;;;;;;;8.70;99.90;;;;;;4907710;29;20048;-69
2022/01/03 05:13:32;;;;;;;34.90;6.63;;;8.70;99.90;;;;;;4905801;29;19931;-69
2022/01/03 05:15:59;;;;;;;30.58;5.65;;;8.70;99.90;;;;;;4906846;29;20060;-69
2022/01/03 05:18:26;;;;;;;36.10;6.40;;;8.70;99.90;;;;;;4907739;29;20473;-69
2022/01/03 05:20:52;;;;;;;37.92;5.90;;;8.70;99.90;;;;;;4889340;29;20123;-68
2022/01/03 05:23:23;;;;;;;30.13;6.32;;;8.70;99.90;;;;;;4907660;29;20537;-68
2022/01/03 05:25:49;;;;;;;37.40;6.82;;;8.70;99.90;;;;;;4907703;29;20044;-68
2022/01/03 05:28:15;;;;;;;36.50;5.47;;;8.70;99.90;;;;;;4937634;29;20089;-68
2022/01/03 05:30:41;;;;;;;34.70;6.45;;;8.70;99.90;;;;;;4906160;29;20493;-68
2022/01/03 05:33:07;;;;;;;34.22;6.93;;;8.70;99.90;;;;;;4892564;29;20068;-68
2022/01/03 05:35:33;;;;;;;;;;;8.70;99.90;;;;;;4907135;29;20108;-68
2022/01/03 05:37:59;;;;;;;38.05;6.68;;;8.70;99.90;;;;;;4921756;29;19927;-68
2022/01/03 05:40:25;;;;;;;32.10;7.15;;;8.70;99.90;;;;;;4906424;29;20052;-69
2022/01/03 05:42:52;;;;;;;28.00;5.85;;;8.70;99.90;;;;;;4887195;29;20063;-69
2022/01/03 05:45:18;;;;;;;31.80;6.30;;;8.70;99.90;;;;;;4918783;29;20052;-69
2022/01/03 05:47:46;;;;;;;26.85;6.72;;;8.70;99.90;;;;;;4918726;29;20153;-68
2022/01/03 05:50:13;;;;;;;36.72;7.53;;;8.70;99.90;;;;;;4887514;29;20065;-68
2022/01/03 05:52:39;;;;;;;31.48;6.25;;;8.60;99.90;;;;;;4897497;29;20092;-68
2022/01/03 05:55:05;;;;;;;55.03;8.63;;;8.60;99.90;;;;;;4905752;29;20055;-70
2022/01/03 05:57:32;;;;;;;45.05;7.55;;;8.60;99.90;;;;;;4905905;29;20635;-68
2022/01/03 05:59:58;;;;;;;44.05;6.50;;;8.60;99.90;;;;;;4906137;29;20119;-68
2022/01/03 06:02:25;;;;;;;38.25;7.00;;;8.60;99.90;;;;;;4907295;29;20048;-69
2022/01/03 06:07:17;;;;;;;43.50;7.97;;;8.70;99.90;;;;;;4898333;29;20056;-69
2022/01/03 06:09:42;;;;;;;30.88;7.10;;;8.70;99.90;;;;;;4907593;29;20140;-69
2022/01/03 06:12:08;;;;;;;45.00;7.43;;;8.70;99.90;;;;;;4906195;29;20164;-69
2022/01/03 06:14:34;;;;;;;43.35;7.13;;;8.70;99.90;;;;;;4902658;29;20396;-69
2022/01/03 06:17:00;;;;;;;30.52;6.55;;;8.70;99.90;;;;;;4898310;29;20049;-69
2022/01/03 06:19:27;;;;;;;30.30;5.72;;;8.70;99.90;;;;;;4911089;29;20056;-69
2022/01/03 06:21:53;;;;;;;38.25;6.85;;;8.70;99.90;;;;;;4909338;29;20113;-70
2022/01/03 06:24:19;;;;;;;47.83;7.93;;;8.70;99.90;;;;;;4909345;29;20088;-69
2022/01/03 06:26:46;;;;;;;39.25;7.38;;;8.70;99.90;;;;;;4909336;29;20384;-69
2022/01/03 06:29:13;;;;;;;39.03;6.57;;;8.70;99.90;;;;;;4910465;29;20044;-69
2022/01/03 06:31:39;;;;;;;39.08;7.57;;;8.60;99.90;;;;;;4910402;29;20059;-69
2022/01/03 06:34:05;;;;;;;33.30;7.43;;;8.70;99.90;;;;;;4909287;29;20504;-69
2022/01/03 06:36:32;;;;;;;31.52;6.50;;;8.70;99.90;;;;;;4907224;29;20282;-68
2022/01/03 06:38:58;;;;;;;33.78;7.05;;;8.70;99.90;;;;;;4893632;29;20053;-68
2022/01/03 06:41:24;;;;;;;33.47;5.82;;;8.70;99.90;;;;;;4925135;29;20045;-68
2022/01/03 06:43:50;;;;;;;37.00;7.60;;;8.70;99.90;;;;;;4910704;29;20095;-68
2022/01/03 06:46:16;;;;;;;36.87;6.80;;;8.80;99.90;;;;;;4927301;29;20191;-69
2022/01/03 06:48:43;;;;;;;46.70;6.63;;;8.80;99.90;;;;;;4926786;29;20100;-68
2022/01/03 06:51:09;;;;;;;35.15;6.60;;;8.80;99.90;;;;;;4929209;29;20111;-69
2022/01/03 06:53:35;;;;;;;39.20;6.40;;;8.80;99.90;;;;;;4911681;29;20087;-69
2022/01/03 06:56:01;;;;;;;39.40;6.95;;;8.70;99.90;;;;;;4896380;29;20051;-69
2022/01/03 06:58:27;;;;;;;38.90;6.10;;;8.70;99.90;;;;;;4910935;29;20048;-68
2022/01/03 07:00:53;;;;;;;38.33;6.85;;;8.70;99.90;;;;;;4911805;29;20080;-69
2022/01/03 07:03:19;;;;;;;31.83;5.95;;;8.70;99.90;;;;;;4911503;29;20060;-68
2022/01/03 07:05:44;;;;;;;40.47;7.83;;;8.60;99.90;;;;;;4929185;29;20047;-68
2022/01/03 07:08:20;;;;;;;46.93;7.27;;;8.60;99.90;;;;;;4909601;29;20324;-71
2022/01/03 07:10:46;;;;;;;41.13;6.85;;;8.60;99.90;;;;;;4911603;29;20048;-69
2022/01/03 07:13:11;;;;;;;31.17;7.83;;;8.60;99.90;;;;;;4928658;29;20048;-69
2022/01/03 07:21:06;;;;;;;41.75;5.95;;;8.60;99.90;;;;;;4911735;29;20588;-67
2022/01/03 07:23:32;;;;;;;41.72;7.15;;;8.60;99.90;;;;;;4911112;29;20091;-65
2022/01/03 07:25:58;;;;;;;;;;;8.60;99.90;;;;;;4929118;29;20044;-65
2022/01/03 07:28:23;;;;;;;42.85;8.30;;;8.60;99.90;;;;;;4909647;29;19930;-65
2022/01/03 07:30:49;;;;;;;35.67;5.53;;;8.60;99.90;;;;;;4911200;29;20060;-66
2022/01/03 07:33:15;;;;;;;41.77;6.33;;;8.70;99.90;;;;;;4921292;29;20036;-66
2022/01/03 07:35:40;;;;;;;45.20;6.63;;;8.70;99.90;;;;;;4902155;29;20053;-65
2022/01/03 07:38:06;;;;;;;29.70;5.90;;;8.70;99.90;;;;;;4902298;29;20425;-65
2022/01/03 07:40:32;;;;;;;37.03;7.20;;;8.70;99.90;;;;;;4894117;29;20127;-65
2022/01/03 07:42:58;;;;;;;44.97;6.57;;;8.70;99.90;;;;;;4927936;29;20116;-66
2022/01/03 07:45:25;;;;;;;36.95;7.13;;;8.70;99.90;;;;;;4910792;29;20091;-65
2022/01/03 07:47:50;;;;;;;41.70;7.63;;;8.70;99.90;;;;;;4907541;29;20056;-67
2022/01/03 07:50:17;;;;;;;40.22;7.13;;;8.80;99.90;;;;;;4895732;29;20044;-67
2022/01/03 07:52:45;;;;;;;47.72;7.30;;;8.70;99.90;;;;;;4926741;29;20139;-67
2022/01/03 07:55:12;;;;;;;35.05;7.25;;;8.70;99.90;;;;;;4915344;29;20381;-66
2022/01/03 07:57:38;;;;;;;43.25;7.35;;;8.80;99.90;;;;;;4909925;29;20428;-66
2022/01/03 08:00:05;;;;;;;;;;;8.80;99.90;;;;;;4910486;29;20048;-66
2022/01/03 08:02:31;;;;;;;32.90;7.05;;;8.70;99.90;;;;;;4926205;29;19923;-67
2022/01/03 08:04:56;;;;;;;32.20;6.73;;;8.80;99.90;;;;;;4911183;29;20099;-67
2022/01/03 08:07:22;;;;;;;42.17;6.10;;;8.80;99.90;;;;;;4902699;29;20044;-69
2022/01/03 08:09:48;;;;;;;41.07;6.70;;;8.80;99.90;;;;;;4950421;29;20295;-64
2022/01/03 08:12:13;;;;;;;39.40;7.63;;;8.80;99.90;;;;;;4911718;29;20613;-64
2022/01/03 08:14:39;;;;;;;60.35;8.25;;;8.80;99.90;;;;;;4921556;29;20126;-66
2022/01/03 08:17:05;;;;;;;47.35;7.30;;;8.90;99.90;;;;;;4917737;29;20168;-66
2022/01/03 08:19:31;;;;;;;36.67;6.75;;;8.90;99.90;;;;;;4910551;29;20118;-64
2022/01/03 08:21:57;;;;;;;38.92;7.65;;;8.90;99.90;;;;;;4941884;29;20040;-66
2022/01/03 08:24:23;;;;;;;34.20;6.30;;;8.90;99.90;;;;;;4944201;29;20036;-66
2022/01/03 08:26:49;;;;;;;42.42;7.53;;;9.00;99.90;;;;;;4927504;29;20320;-64
2022/01/03 08:29:15;;;;;;;42.92;6.22;;;9.00;99.90;;;;;;4910003;29;20519;-67
2022/01/03 08:31:41;;;;;;;30.63;5.93;;;9.00;99.90;;;;;;4910232;29;20080;-65
2022/01/03 08:34:07;;;;;;;39.63;7.85;;;9.00;99.90;;;;;;4910157;29;20088;-67
2022/01/03 08:36:33;;;;;;;40.75;7.05;;;9.10;99.90;;;;;;4925843;29;20052;-66
2022/01/03 08:38:59;;;;;;;33.27;6.33;;;9.10;99.90;;;;;;4921068;29;20100;-66
2022/01/03 08:41:24;;;;;;;37.47;7.43;;;9.10;99.90;;;;;;4926379;29;20056;-65
2022/01/03 08:43:51;;;;;;;41.03;6.63;;;9.10;99.90;;;;;;4920607;29;20114;-67
2022/01/03 08:46:17;;;;;;;43.20;8.27;;;9.10;99.90;;;;;;4926731;29;20044;-66
2022/01/03 08:48:43;;;;;;;41.40;8.07;;;9.20;99.90;;;;;;4906137;29;20048;-67
2022/01/03 08:51:09;;;;;;;29.75;6.15;;;9.20;99.90;;;;;;4916183;29;20099;-66
2022/01/03 08:53:35;;;;;;;36.65;7.18;;;9.20;99.90;;;;;;4909977;29;20040;-64
2022/01/03 08:56:01;;;;;;;;;;;9.20;99.90;;;;;;4892637;29;20083;-67
2022/01/03 08:58:28;;;;;;;39.38;6.65;;;9.20;99.90;;;;;;4941456;29;19926;-66
2022/01/03 09:00:54;;;;;;;;;;;9.20;99.90;;;;;;4913983;29;20100;-65
2022/01/03 09:03:20;;;;;;;33.13;6.00;;;9.20;99.90;;;;;;4909622;29;19923;-65
2022/01/03 09:05:46;;;;;;;35.97;7.43;;;9.30;99.90;;;;;;4909865;29;20083;-69
2022/01/03 09:08:12;;;;;;;37.08;7.13;;;9.30;99.90;;;;;;4911498;29;20044;-67
2022/01/03 09:10:39;;;;;;;52.25;7.30;;;9.30;99.90;;;;;;4915921;29;20104;-65
2022/01/03 09:13:04;;;;;;;39.22;7.10;;;9.30;99.90;;;;;;4940196;29;20151;-64
2022/01/03 09:15:31;;;;;;;36.33;6.85;;;9.30;99.90;;;;;;4926817;29;20136;-64
2022/01/03 09:17:57;;;;;;;28.40;6.22;;;9.30;99.90;;;;;;4902914;29;20052;-65
2022/01/03 09:20:22;;;;;;;36.05;7.32;;;9.30;99.90;;;;;;4891014;29;20052;-65
2022/01/03 09:22:52;;;;;;;36.55;6.93;;;9.30;99.90;;;;;;4908566;29;20446;-65
2022/01/03 09:30:33;;;;;;;40.55;6.25;;;9.40;99.90;;;;;;4907390;29;20112;-65
2022/01/03 09:32:59;;;;;;;28.33;6.35;;;9.40;99.90;;;;;;4908059;29;20045;-65
2022/01/03 09:35:25;;;;;;;24.75;6.40;;;9.40;99.90;;;;;;4909269;29;20108;-64
2022/01/03 09:37:51;;;;;;;31.95;6.65;;;9.40;99.90;;;;;;4908676;29;20040;-66
2022/01/03 09:40:17;;;;;;;36.90;6.87;;;9.50;99.90;;;;;;4920190;29;20100;-65
2022/01/03 09:42:47;;;;;;;56.15;6.80;;;9.50;99.90;;;;;;4902873;29;20044;-63
2022/01/03 09:45:13;;;;;;;37.88;5.70;;;9.50;99.90;;;;;;4906464;29;20055;-65
2022/01/03 09:47:43;;;;;;;35.13;6.18;;;9.50;99.90;;;;;;4906882;29;20048;-66
2022/01/03 09:50:11;;;;;;;33.88;6.95;;;9.50;99.90;;;;;;4901634;29;20084;-66
2022/01/03 09:52:36;;;;;;;27.65;6.15;;;9.50;99.90;;;;;;4911001;29;20048;-65
2022/01/03 09:55:04;;;;;;;43.85;6.18;;;9.50;99.90;;;;;;4911553;29;20032;-65
2022/01/03 09:57:30;;;;;;;30.48;6.72;;;9.50;99.90;;;;;;4909700;29;20075;-65
2022/01/03 09:59:58;;;;;;;38.63;5.70;;;9.50;99.90;;;;;;4909682;29;20053;-65
2022/01/03 10:02:25;;;;;;;37.70;7.43;;;9.50;99.90;;;;;;4915463;29;20035;-64
2022/01/03 10:04:50;;;;;;;34.17;6.82;;;9.50;99.90;;;;;;4911146;29;20060;-66
2022/01/03 10:07:17;;;;;;;32.20;6.43;;;9.50;99.90;;;;;;4940590;29;20057;-66
2022/01/03 10:09:44;;;;;;;41.40;7.05;;;9.50;99.90;;;;;;4910032;29;20108;-67
2022/01/03 10:12:10;;;;;;;;;;;9.50;99.90;;;;;;4903051;29;20045;-67
2022/01/03 10:14:36;;;;;;;30.20;6.10;;;9.40;99.90;;;;;;4909859;29;20006;-66
2022/01/03 10:17:02;;;;;;;34.00;6.30;;;9.50;99.90;;;;;;4909119;29;20107;-67
2022/01/03 10:19:28;;;;;;;35.90;5.97;;;9.50;99.90;;;;;;4908779;29;20116;-66
2022/01/03 10:21:53;;;;;;;33.45;6.90;;;9.60;99.90;;;;;;4904906;29;20502;-65
2022/01/03 10:24:36;;;;;;;37.07;6.13;;;9.60;99.90;;;;;;4909459;29;20067;-67
2022/01/03 10:27:03;;;;;;;32.00;6.07;;;9.60;99.90;;;;;;4907508;29;20097;-69
2022/01/03 10:29:34;;;;;;;28.98;6.22;;;9.70;99.90;;;;;;4908434;29;20068;-66
2022/01/03 10:32:02;;;;;;;33.85;6.35;;;9.70;99.90;;;;;;4906768;29;20087;-66
2022/01/03 10:34:31;;;;;;;35.58;6.50;;;9.70;99.90;;;;;;4892220;29;20082;-66
2022/01/03 10:36:57;;;;;;;34.53;6.97;;;9.70;99.90;;;;;;4908415;29;20056;-66
2022/01/03 10:39:28;;;;;;;38.65;6.45;;;9.70;99.90;;;;;;4909310;29;20472;-67
2022/01/03 10:42:13;;;;;;;27.77;5.63;;;9.70;99.90;;;;;;4905088;29;20052;-67
2022/01/03 10:44:40;;;;;;;30.85;5.70;;;9.80;99.90;;;;;;4905124;29;20076;-66
2022/01/03 10:47:08;;;;;;;37.95;6.57;;;9.90;99.90;;;;;;4904926;29;20045;-67
2022/01/03 10:49:36;;;;;;;33.63;6.80;;;9.90;99.90;;;;;;4907536;29;20028;-66
2022/01/03 10:52:19;;;;;;;32.25;6.38;;;9.90;99.90;;;;;;4907939;29;20056;-66
2022/01/03 10:55:06;;;;;;;24.02;4.80;;;9.90;99.90;;;;;;4904316;29;20055;-70
2022/01/03 10:57:52;;;;;;;28.47;6.17;;;9.90;99.90;;;;;;4934119;29;20171;-68
2022/01/03 11:00:29;;;;;;;33.80;6.90;;;9.90;99.90;;;;;;4909783;29;20741;-67
2022/01/03 11:03:37;;;;;;;36.95;5.88;;;9.90;99.90;;;;;;4909634;29;20140;-68
2022/01/03 11:06:21;;;;;;;29.52;6.38;;;10.00;99.90;;;;;;4905087;29;20048;-68
2022/01/03 11:11:33;;;;;;;28.08;6.03;;;10.00;99.90;;;;;;4909995;29;20136;-67
2022/01/03 11:13:59;;;;;;;30.17;6.82;;;10.00;99.90;;;;;;4909907;29;20496;-69
2022/01/03 11:16:31;;;;;;;34.72;6.75;;;10.00;99.90;;;;;;4907663;29;20049;-66
2022/01/03 11:18:56;;;;;;;24.80;6.00;;;10.00;99.90;;;;;;4909870;29;20072;-67
2022/01/03 11:21:24;;;;;;;31.88;5.88;;;10.10;99.90;;;;;;4908365;29;20056;-69
2022/01/03 11:24:02;;;;;;;30.10;6.25;;;10.00;99.90;;;;;;4909689;29;20152;-68
2022/01/03 11:26:30;;;;;;;30.95;5.93;;;10.10;99.90;;;;;;4890944;29;20071;-68
2022/01/03 11:28:57;;;;;;;28.17;5.85;;;10.10;99.90;;;;;;4909912;29;20052;-65
2022/01/03 11:31:23;;;;;;;25.67;5.80;;;10.10;99.90;;;;;;4908293;29;20049;-65
2022/01/03 11:33:51;;;;;;;;;;;10.10;99.90;;;;;;4907689;29;20048;-65
2022/01/03 11:36:17;;;;;;;;;;;10.00;99.90;;;;;;4913568;29;19931;-65
2022/01/03 11:38:45;;;;;;;28.58;6.00;;;10.00;99.90;;;;;;4907468;29;19923;-71
2022/01/03 11:41:11;;;;;;;24.52;5.45;;;10.00;99.90;;;;;;4922556;29;20060;-65
2022/01/03 11:43:39;;;;;;;31.33;5.72;;;10.00;99.90;;;;;;4942777;29;20056;-65
2022/01/03 11:46:05;;;;;;;36.05;6.55;;;10.00;99.90;;;;;;4928207;29;20051;-66
2022/01/03 11:48:31;;;;;;;;;;;10.00;99.90;;;;;;4922292;29;20052;-65
2022/01/03 11:51:03;;;;;;;30.23;6.05;;;10.00;99.90;;;;;;4895479;29;19931;-65
2022/01/03 11:53:36;;;;;;;35.72;6.57;;;10.10;99.90;;;;;;4910804;29;20115;-65
2022/01/03 11:56:05;;;;;;;35.78;6.20;;;10.10;99.90;;;;;;4928093;29;20044;-65
2022/01/03 12:04:41;;;;;;;33.58;6.15;;;10.20;99.90;;;;;;4925126;29;20055;-66
2022/01/03 12:07:12;;;;;;;30.73;6.43;;;10.20;99.90;;;;;;4925541;29;20048;-65
2022/01/03 12:09:43;;;;;;;29.05;5.65;;;10.20;99.90;;;;;;4924857;29;20059;-65
2022/01/03 12:12:09;;;;;;;26.75;5.38;;;10.30;99.90;;;;;;4925010;29;20131;-66
2022/01/03 12:14:45;;;;;;;34.47;6.05;;;10.30;99.90;;;;;;4925084;29;20081;-65
2022/01/03 12:17:15;;;;;;;28.77;5.70;;;10.30;99.90;;;;;;4925587;29;20055;-65
2022/01/03 12:19:43;;;;;;;24.98;5.38;;;10.30;99.90;;;;;;4922351;29;20160;-65
2022/01/03 12:22:20;;;;;;;40.00;5.85;;;10.30;99.90;;;;;;4924962;29;20146;-65
2022/01/03 12:24:49;;;;;;;;;;;10.30;99.90;;;;;;4910254;29;20120;-66
2022/01/03 12:27:15;;;;;;;30.77;6.47;;;10.20;99.90;;;;;;4924749;29;19927;-67
2022/01/03 12:29:56;;;;;;;26.20;5.13;;;10.30;99.90;;;;;;4908836;29;20518;-68
2022/01/03 12:32:22;;;;;;;34.67;7.10;;;10.20;99.90;;;;;;4940082;29;20080;-65
2022/01/03 12:35:08;;;;;;;27.73;5.80;;;10.20;99.90;;;;;;4924860;29;20056;-67
2022/01/03 12:37:43;;;;;;;33.28;5.13;;;10.20;99.90;;;;;;4908847;29;20060;-63
2022/01/03 12:40:10;;;;;;;32.75;6.43;;;10.20;99.90;;;;;;4924265;29;20048;-63
2022/01/03 12:42:48;;;;;;;27.38;6.05;;;10.20;99.90;;;;;;4906432;29;20082;-65
2022/01/03 12:45:36;;;;;;;34.00;5.53;;;10.20;99.90;;;;;;4941666;29;20071;-64
2022/01/03 12:48:08;;;;;;;32.08;6.55;;;10.20;99.90;;;;;;4926814;29;20040;-64
2022/01/03 12:50:42;;;;;;;29.05;5.72;;;10.30;99.90;;;;;;4909588;29;20032;-64
2022/01/03 12:53:10;;;;;;;32.22;6.13;;;10.30;99.90;;;;;;4904559;29;20102;-65
2022/01/03 12:55:38;;;;;;;45.30;6.80;;;10.30;99.90;;;;;;4939696;29;20044;-66
2022/01/03 12:58:16;;;;;;;29.60;6.15;;;10.30;99.90;;;;;;4926517;29;20044;-69
2022/01/03 13:00:51;;;;;;;32.97;7.05;;;10.40;99.90;;;;;;4913654;29;20097;-62
2022/01/03 13:03:23;;;;;;;36.53;6.60;;;10.40;99.90;;;;;;4946475;29;20044;-65
2022/01/03 13:06:07;;;;;;;29.08;5.70;;;10.40;99.90;;;;;;4913691;29;20276;-66
2022/01/03 13:08:35;;;;;;;32.08;6.35;;;10.40;99.90;;;;;;4925791;29;20511;-66
2022/01/03 13:11:02;;;;;;;31.98;6.20;;;10.40;99.90;;;;;;4924923;29;20489;-67
2022/01/03 13:13:28;;;;;;;29.63;6.35;;;10.40;99.90;;;;;;4914379;29;20059;-66
2022/01/03 13:15:55;;;;;;;37.40;7.28;;;10.40;99.90;;;;;;4926395;29;20056;-67
2022/01/03 13:18:21;;;;;;;31.75;6.38;;;10.40;99.90;;;;;;4926030;29;20053;-68